sensor_id;sensor_type;location;lat;lon;timestamp;pressure;altitude;pressure_sealevel;temperature;humidity
70314;BME280;71040;47.526;18.986;2024-03-22T00:03:30;100086.31;;;10.37;72.48
70314;BME280;71040;47.526;18.986;2024-03-22T00:08:30;100082.00;;;10.36;72.32
70314;BME280;71040;47.526;18.986;2024-03-22T00:13:31;100081.09;;;10.37;72.51
70314;BME280;71040;47.526;18.986;2024-03-22T00:18:35;100084.63;;;10.36;72.27
70314;BME280;71040;47.526;18.986;2024-03-22T00:23:36;100079.41;;;10.36;72.76
70314;BME280;71040;47.526;18.986;2024-03-22T00:28:36;100076.84;;;10.34;72.95
70314;BME280;71040;47.526;18.986;2024-03-22T00:33:39;100076.84;;;10.34;72.84
70314;BME280;71040;47.526;18.986;2024-03-22T00:38:42;100067.22;;;10.35;72.92
70314;BME280;71040;47.526;18.986;2024-03-22T00:43:44;100067.22;;;10.35;73.00
70314;BME280;71040;47.526;18.986;2024-03-22T00:48:47;100059.41;;;10.35;72.81
70314;BME280;71040;47.526;18.986;2024-03-22T00:53:47;100053.31;;;10.34;72.83
70314;BME280;71040;47.526;18.986;2024-03-22T00:58:48;100059.44;;;10.33;73.01
70314;BME280;71040;47.526;18.986;2024-03-22T01:03:54;100051.63;;;10.33;73.08
70314;BME280;71040;47.526;18.986;2024-03-22T01:08:57;100055.13;;;10.32;73.09
70314;BME280;71040;47.526;18.986;2024-03-22T01:13:57;100063.81;;;10.33;73.00
70314;BME280;71040;47.526;18.986;2024-03-22T01:19:00;100064.72;;;10.32;73.13
70314;BME280;71040;47.526;18.986;2024-03-22T01:24:01;100062.97;;;10.32;73.52
70314;BME280;71040;47.526;18.986;2024-03-22T01:29:01;100065.59;;;10.32;73.42
70314;BME280;71040;47.526;18.986;2024-03-22T01:34:02;100054.28;;;10.32;73.66
70314;BME280;71040;47.526;18.986;2024-03-22T01:39:02;100061.25;;;10.31;73.40
70314;BME280;71040;47.526;18.986;2024-03-22T01:44:05;100051.66;;;10.32;73.32
70314;BME280;71040;47.526;18.986;2024-03-22T01:49:05;100037.75;;;10.31;73.81
70314;BME280;71040;47.526;18.986;2024-03-22T01:54:10;100036.91;;;10.31;73.58
70314;BME280;71040;47.526;18.986;2024-03-22T01:59:10;100035.19;;;10.30;73.41
70314;BME280;71040;47.526;18.986;2024-03-22T02:04:13;100036.91;;;10.31;73.84
70314;BME280;71040;47.526;18.986;2024-03-22T02:09:14;100033.47;;;10.29;73.63
70314;BME280;71040;47.526;18.986;2024-03-22T02:14:15;100037.81;;;10.30;73.88
70314;BME280;71040;47.526;18.986;2024-03-22T02:19:20;100041.38;;;10.27;74.25
70314;BME280;71040;47.526;18.986;2024-03-22T02:24:21;100046.50;;;10.30;74.04
70314;BME280;71040;47.526;18.986;2024-03-22T02:29:21;100043.09;;;10.28;74.20
70314;BME280;71040;47.526;18.986;2024-03-22T02:34:24;100038.72;;;10.29;74.50
70314;BME280;71040;47.526;18.986;2024-03-22T02:39:25;100035.25;;;10.28;74.10
70314;BME280;71040;47.526;18.986;2024-03-22T02:44:30;100030.03;;;10.28;74.15
70314;BME280;71040;47.526;18.986;2024-03-22T02:49:30;100026.56;;;10.28;74.34
70314;BME280;71040;47.526;18.986;2024-03-22T02:54:31;100023.94;;;10.28;74.39
70314;BME280;71040;47.526;18.986;2024-03-22T02:59:34;100027.50;;;10.27;74.36
70314;BME280;71040;47.526;18.986;2024-03-22T03:04:34;100023.09;;;10.27;74.57
70314;BME280;71040;47.526;18.986;2024-03-22T03:09:34;100018.84;;;10.25;74.50
70314;BME280;71040;47.526;18.986;2024-03-22T03:14:35;100018.72;;;10.28;74.69
70314;BME280;71040;47.526;18.986;2024-03-22T03:19:36;100014.44;;;10.27;74.60
70314;BME280;71040;47.526;18.986;2024-03-22T03:24:39;100015.34;;;10.26;74.62
70314;BME280;71040;47.526;18.986;2024-03-22T03:29:48;100019.72;;;10.25;74.79
70314;BME280;71040;47.526;18.986;2024-03-22T03:34:57;100018.00;;;10.24;75.04
70314;BME280;71040;47.526;18.986;2024-03-22T03:39:57;100014.47;;;10.25;75.18
70314;BME280;71040;47.526;18.986;2024-03-22T03:44:58;100017.94;;;10.26;75.01
70314;BME280;71040;47.526;18.986;2024-03-22T03:49:58;100025.00;;;10.24;74.92
70314;BME280;71040;47.526;18.986;2024-03-22T03:54:59;100016.31;;;10.23;74.91
70314;BME280;71040;47.526;18.986;2024-03-22T04:00:02;100027.56;;;10.25;75.56
70314;BME280;71040;47.526;18.986;2024-03-22T04:05:05;100026.69;;;10.25;75.42
70314;BME280;71040;47.526;18.986;2024-03-22T04:10:08;100030.16;;;10.25;75.24
70314;BME280;71040;47.526;18.986;2024-03-22T04:15:11;100026.75;;;10.23;75.50
70314;BME280;71040;47.526;18.986;2024-03-22T04:20:11;100025.84;;;10.24;75.50
70314;BME280;71040;47.526;18.986;2024-03-22T04:25:12;100036.41;;;10.21;75.66
70314;BME280;71040;47.526;18.986;2024-03-22T04:30:12;100044.13;;;10.24;75.27
70314;BME280;71040;47.526;18.986;2024-03-22T04:35:15;100047.66;;;10.23;75.73
70314;BME280;71040;47.526;18.986;2024-03-22T04:40:18;100057.19;;;10.24;75.54
70314;BME280;71040;47.526;18.986;2024-03-22T04:45:19;100058.09;;;10.23;75.85
70314;BME280;71040;47.526;18.986;2024-03-22T04:50:21;100050.31;;;10.22;75.45
70314;BME280;71040;47.526;18.986;2024-03-22T04:55:27;100048.63;;;10.21;75.79
70314;BME280;71040;47.526;18.986;2024-03-22T05:00:28;100051.19;;;10.22;76.00
70314;BME280;71040;47.526;18.986;2024-03-22T05:05:28;100051.19;;;10.22;75.83
70314;BME280;71040;47.526;18.986;2024-03-22T05:10:30;100052.09;;;10.21;75.98
70314;BME280;71040;47.526;18.986;2024-03-22T05:15:33;100048.63;;;10.21;75.80
70314;BME280;71040;47.526;18.986;2024-03-22T05:20:34;100057.25;;;10.23;76.26
70314;BME280;71040;47.526;18.986;2024-03-22T05:25:39;100050.38;;;10.20;76.38
70314;BME280;71040;47.526;18.986;2024-03-22T05:30:41;100048.63;;;10.21;76.02
70314;BME280;71040;47.526;18.986;2024-03-22T05:35:44;100037.44;;;10.15;76.25
70314;BME280;71040;47.526;18.986;2024-03-22T05:40:47;100047.72;;;10.22;76.05
70314;BME280;71040;47.526;18.986;2024-03-22T05:45:51;100046.84;;;10.21;76.48
70314;BME280;71040;47.526;18.986;2024-03-22T05:50:52;100046.91;;;10.20;76.45
70314;BME280;71040;47.526;18.986;2024-03-22T05:55:55;100058.16;;;10.22;76.52
70314;BME280;71040;47.526;18.986;2024-03-22T06:00:58;100055.53;;;10.22;76.67
70314;BME280;71040;47.526;18.986;2024-03-22T06:06:00;100049.47;;;10.21;76.36
70314;BME280;71040;47.526;18.986;2024-03-22T06:11:00;100053.84;;;10.21;76.73
70314;BME280;71040;47.526;18.986;2024-03-22T06:16:03;100054.69;;;10.21;76.49
70314;BME280;71040;47.526;18.986;2024-03-22T06:21:04;100053.00;;;10.20;76.83
70314;BME280;71040;47.526;18.986;2024-03-22T06:26:07;100048.63;;;10.21;76.87
70314;BME280;71040;47.526;18.986;2024-03-22T06:31:08;100060.78;;;10.22;76.83
70314;BME280;71040;47.526;18.986;2024-03-22T06:36:08;100045.16;;;10.20;77.14
70314;BME280;71040;47.526;18.986;2024-03-22T06:41:11;100042.59;;;10.19;77.07
70314;BME280;71040;47.526;18.986;2024-03-22T06:46:11;100037.31;;;10.20;77.33
70314;BME280;71040;47.526;18.986;2024-03-22T06:51:12;100046.91;;;10.20;77.18
70314;BME280;71040;47.526;18.986;2024-03-22T06:56:12;100049.47;;;10.21;76.97
70314;BME280;71040;47.526;18.986;2024-03-22T07:01:12;100049.47;;;10.21;77.00
70314;BME280;71040;47.526;18.986;2024-03-22T07:06:14;100059.88;;;10.23;77.15
70314;BME280;71040;47.526;18.986;2024-03-22T07:11:14;100056.44;;;10.21;77.26
70314;BME280;71040;47.526;18.986;2024-03-22T07:16:15;100064.25;;;10.22;77.03
70314;BME280;71040;47.526;18.986;2024-03-22T07:21:20;100067.72;;;10.23;77.49
70314;BME280;71040;47.526;18.986;2024-03-22T07:26:21;100064.25;;;10.22;77.07
70314;BME280;71040;47.526;18.986;2024-03-22T07:31:21;100055.53;;;10.22;77.67
70314;BME280;71040;47.526;18.986;2024-03-22T07:36:24;100065.19;;;10.20;77.39
70314;BME280;71040;47.526;18.986;2024-03-22T07:41:29;100072.03;;;10.24;77.64
70314;BME280;71040;47.526;18.986;2024-03-22T07:46:32;100085.94;;;10.24;77.39
70314;BME280;71040;47.526;18.986;2024-03-22T07:51:32;100089.41;;;10.25;77.66
70314;BME280;71040;47.526;18.986;2024-03-22T07:56:32;100079.00;;;10.23;77.65
70314;BME280;71040;47.526;18.986;2024-03-22T08:01:35;100095.47;;;10.25;77.68
70314;BME280;71040;47.526;18.986;2024-03-22T08:06:38;100094.63;;;10.25;77.45
70314;BME280;71040;47.526;18.986;2024-03-22T08:11:39;100086.75;;;10.26;77.91
70314;BME280;71040;47.526;18.986;2024-03-22T08:16:39;100084.03;;;10.28;78.02
70314;BME280;71040;47.526;18.986;2024-03-22T08:21:40;100080.72;;;10.24;77.69
70314;BME280;71040;47.526;18.986;2024-03-22T08:26:40;100102.28;;;10.29;77.64
70314;BME280;71040;47.526;18.986;2024-03-22T08:31:41;100096.16;;;10.30;77.58
70314;BME280;71040;47.526;18.986;2024-03-22T08:36:43;100093.53;;;10.30;77.73
70314;BME280;71040;47.526;18.986;2024-03-22T08:41:46;100090.00;;;10.31;77.94
70314;BME280;71040;47.526;18.986;2024-03-22T08:46:47;100083.97;;;10.29;77.80
70314;BME280;71040;47.526;18.986;2024-03-22T08:51:51;100080.47;;;10.30;77.93
70314;BME280;71040;47.526;18.986;2024-03-22T08:56:53;100084.69;;;10.34;77.67
70314;BME280;71040;47.526;18.986;2024-03-22T09:01:58;100082.91;;;10.35;77.96
70314;BME280;71040;47.526;18.986;2024-03-22T09:06:59;100075.94;;;10.35;77.92
70314;BME280;71040;47.526;18.986;2024-03-22T09:12:02;100082.00;;;10.36;78.41
70314;BME280;71040;47.526;18.986;2024-03-22T09:17:05;100075.81;;;10.38;78.38
70314;BME280;71040;47.526;18.986;2024-03-22T09:22:08;100065.28;;;10.40;78.40
70314;BME280;71040;47.526;18.986;2024-03-22T09:27:09;100061.81;;;10.39;78.45
70314;BME280;71040;47.526;18.986;2024-03-22T09:32:09;100058.22;;;10.42;78.18
70314;BME280;71040;47.526;18.986;2024-03-22T09:37:12;100047.84;;;10.40;78.32
70314;BME280;71040;47.526;18.986;2024-03-22T09:42:18;100052.03;;;10.44;78.38
70314;BME280;71040;47.526;18.986;2024-03-22T09:47:18;100051.06;;;10.47;78.49
70314;BME280;71040;47.526;18.986;2024-03-22T09:52:21;100044.09;;;10.47;78.74
70314;BME280;71040;47.526;18.986;2024-03-22T09:57:23;100043.94;;;10.50;78.38
70314;BME280;71040;47.526;18.986;2024-03-22T10:02:26;100029.25;;;10.48;78.76
70314;BME280;71040;47.526;18.986;2024-03-22T10:07:30;100025.59;;;10.52;78.65
70314;BME280;71040;47.526;18.986;2024-03-22T10:12:33;100025.59;;;10.52;78.65
70314;BME280;71040;47.526;18.986;2024-03-22T10:17:39;100024.56;;;10.56;78.47
70314;BME280;71040;47.526;18.986;2024-03-22T10:22:43;100014.97;;;10.57;78.88
70314;BME280;71040;47.526;18.986;2024-03-22T10:27:44;100015.75;;;10.59;79.22
70314;BME280;71040;47.526;18.986;2024-03-22T10:32:48;100019.06;;;10.62;79.11
70314;BME280;71040;47.526;18.986;2024-03-22T10:37:52;100012.16;;;10.61;79.00
70314;BME280;71040;47.526;18.986;2024-03-22T10:42:53;100016.34;;;10.65;79.45
70314;BME280;71040;47.526;18.986;2024-03-22T10:47:58;100009.34;;;10.66;79.35
70314;BME280;71040;47.526;18.986;2024-03-22T10:53:02;100017.00;;;10.70;80.06
70314;BME280;71040;47.526;18.986;2024-03-22T10:58:06;100014.47;;;10.69;79.95
70314;BME280;71040;47.526;18.986;2024-03-22T11:03:07;100016.88;;;10.73;80.44
70314;BME280;71040;47.526;18.986;2024-03-22T11:08:29;100008.09;;;10.74;80.08
70314;BME280;71040;47.526;18.986;2024-03-22T11:13:39;100009.75;;;10.77;79.69
70314;BME280;71040;47.526;18.986;2024-03-22T11:18:39;100008.78;;;10.79;79.80
70314;BME280;71040;47.526;18.986;2024-03-22T11:23:39;100003.50;;;10.81;79.41
70314;BME280;71040;47.526;18.986;2024-03-22T11:28:40;99987.69;;;10.84;79.67
70314;BME280;71040;47.526;18.986;2024-03-22T11:33:40;99985.81;;;10.86;79.42
70314;BME280;71040;47.526;18.986;2024-03-22T11:38:43;99967.78;;;10.80;79.50
70314;BME280;71040;47.526;18.986;2024-03-22T11:43:45;99984.78;;;10.90;79.59
70314;BME280;71040;47.526;18.986;2024-03-22T11:48:53;99970.00;;;10.89;79.65
70314;BME280;71040;47.526;18.986;2024-03-22T11:53:53;99978.59;;;10.93;79.49
70314;BME280;71040;47.526;18.986;2024-03-22T11:58:59;99971.59;;;10.93;79.41
70314;BME280;71040;47.526;18.986;2024-03-22T12:04:03;99975.63;;;11.00;79.64
70314;BME280;71040;47.526;18.986;2024-03-22T12:09:14;99958.13;;;11.02;79.67
70314;BME280;71040;47.526;18.986;2024-03-22T12:14:14;99948.44;;;11.04;79.43
70314;BME280;71040;47.526;18.986;2024-03-22T12:19:17;99953.56;;;11.07;79.30
70314;BME280;71040;47.526;18.986;2024-03-22T12:24:20;99949.06;;;11.09;79.29
70314;BME280;71040;47.526;18.986;2024-03-22T12:29:23;99945.47;;;11.12;79.35
70314;BME280;71040;47.526;18.986;2024-03-22T12:34:24;99941.88;;;11.14;79.52
70314;BME280;71040;47.526;18.986;2024-03-22T12:39:24;99933.06;;;11.17;79.50
70314;BME280;71040;47.526;18.986;2024-03-22T12:44:27;99931.22;;;11.19;79.30
70314;BME280;71040;47.526;18.986;2024-03-22T12:49:27;99918.16;;;11.19;79.15
70314;BME280;71040;47.526;18.986;2024-03-22T12:54:28;99920.53;;;11.23;79.34
70314;BME280;71040;47.526;18.986;2024-03-22T12:59:33;99905.63;;;11.25;79.19
70314;BME280;71040;47.526;18.986;2024-03-22T13:04:36;99891.56;;;11.28;79.09
70314;BME280;71040;47.526;18.986;2024-03-22T13:09:37;99892.34;;;11.30;78.95
70314;BME280;71040;47.526;18.986;2024-03-22T13:14:37;99872.16;;;11.32;79.12
70314;BME280;71040;47.526;18.986;2024-03-22T13:19:37;99875.56;;;11.34;78.70
70314;BME280;71040;47.526;18.986;2024-03-22T13:24:40;99861.50;;;11.37;78.77
70314;BME280;71040;47.526;18.986;2024-03-22T13:29:44;99864.91;;;11.39;78.77
70314;BME280;71040;47.526;18.986;2024-03-22T13:34:50;99844.72;;;11.41;78.56
70314;BME280;71040;47.526;18.986;2024-03-22T13:39:57;99846.06;;;11.49;77.93
70314;BME280;71040;47.526;18.986;2024-03-22T13:45:00;99844.50;;;11.64;75.96
70314;BME280;71040;47.526;18.986;2024-03-22T13:50:00;99832.19;;;11.85;74.67
70314;BME280;71040;47.526;18.986;2024-03-22T13:55:01;99829.81;;;11.98;72.15
70314;BME280;71040;47.526;18.986;2024-03-22T14:00:02;99828.63;;;12.03;72.31
70314;BME280;71040;47.526;18.986;2024-03-22T14:05:08;99812.38;;;11.96;73.46
70314;BME280;71040;47.526;18.986;2024-03-22T14:10:09;99816.06;;;11.92;74.34
70314;BME280;71040;47.526;18.986;2024-03-22T14:15:09;99791.25;;;11.82;74.92
70314;BME280;71040;47.526;18.986;2024-03-22T14:20:12;99798.13;;;11.85;75.37
70314;BME280;71040;47.526;18.986;2024-03-22T14:25:15;99790.34;;;11.83;75.42
70314;BME280;71040;47.526;18.986;2024-03-22T14:30:15;99799.03;;;11.84;75.59
70314;BME280;71040;47.526;18.986;2024-03-22T14:35:16;99787.78;;;11.82;75.61
70314;BME280;71040;47.526;18.986;2024-03-22T14:40:16;99787.72;;;11.83;75.89
70314;BME280;71040;47.526;18.986;2024-03-22T14:45:19;99778.09;;;11.84;75.62
70314;BME280;71040;47.526;18.986;2024-03-22T14:50:23;99777.31;;;11.82;75.78
70314;BME280;71040;47.526;18.986;2024-03-22T14:55:24;99757.56;;;11.75;75.90
70314;BME280;71040;47.526;18.986;2024-03-22T15:00:27;99767.53;;;11.85;75.79
70314;BME280;71040;47.526;18.986;2024-03-22T15:05:28;99764.16;;;11.83;75.65
70314;BME280;71040;47.526;18.986;2024-03-22T15:10:32;99772.72;;;11.87;75.96
70314;BME280;71040;47.526;18.986;2024-03-22T15:15:35;99762.22;;;11.87;75.88
70314;BME280;71040;47.526;18.986;2024-03-22T15:20:35;99757.84;;;11.87;73.74
70314;BME280;71040;47.526;18.986;2024-03-22T15:25:36;99754.91;;;11.93;74.51
70314;BME280;71040;47.526;18.986;2024-03-22T15:30:41;99746.34;;;11.90;75.08
70314;BME280;71040;47.526;18.986;2024-03-22T15:35:42;99754.06;;;11.93;75.10
70314;BME280;71040;47.526;18.986;2024-03-22T15:40:47;99751.28;;;11.96;75.23
70314;BME280;71040;47.526;18.986;2024-03-22T15:45:54;99754.69;;;11.98;75.22
70314;BME280;71040;47.526;18.986;2024-03-22T15:50:55;99755.53;;;11.99;75.29
70314;BME280;71040;47.526;18.986;2024-03-22T15:55:58;99751.13;;;11.99;75.29
70314;BME280;71040;47.526;18.986;2024-03-22T16:00:59;99747.66;;;11.99;75.32
70314;BME280;71040;47.526;18.986;2024-03-22T16:06:00;99750.13;;;12.02;75.23
70314;BME280;71040;47.526;18.986;2024-03-22T16:11:00;99748.41;;;12.01;75.20
70314;BME280;71040;47.526;18.986;2024-03-22T16:16:03;99749.25;;;12.01;75.40
70314;BME280;71040;47.526;18.986;2024-03-22T16:21:04;99743.09;;;12.02;75.32
70314;BME280;71040;47.526;18.986;2024-03-22T16:26:04;99743.09;;;12.02;75.42
70314;BME280;71040;47.526;18.986;2024-03-22T16:31:04;99753.59;;;12.02;75.50
70314;BME280;71040;47.526;18.986;2024-03-22T16:36:07;99756.13;;;12.04;75.49
70314;BME280;71040;47.526;18.986;2024-03-22T16:41:10;99751.88;;;12.01;75.33
70314;BME280;71040;47.526;18.986;2024-03-22T16:46:10;99750.13;;;12.02;75.30
70314;BME280;71040;47.526;18.986;2024-03-22T16:51:11;99755.22;;;12.05;75.75
70314;BME280;71040;47.526;18.986;2024-03-22T16:56:11;99764.84;;;12.04;75.57
70314;BME280;71040;47.526;18.986;2024-03-22T17:01:14;99749.19;;;12.03;75.75
70314;BME280;71040;47.526;18.986;2024-03-22T17:06:14;99758.59;;;12.07;75.68
70314;BME280;71040;47.526;18.986;2024-03-22T17:11:17;99762.22;;;12.04;75.87
70314;BME280;71040;47.526;18.986;2024-03-22T17:16:17;99757.75;;;12.06;75.83
70314;BME280;71040;47.526;18.986;2024-03-22T17:21:20;99763.84;;;12.07;75.93
70314;BME280;71040;47.526;18.986;2024-03-22T17:26:24;99765.53;;;12.08;75.94
70314;BME280;71040;47.526;18.986;2024-03-22T17:31:25;99763.84;;;12.07;76.01
70314;BME280;71040;47.526;18.986;2024-03-22T17:36:27;99762.91;;;12.08;76.04
70314;BME280;71040;47.526;18.986;2024-03-22T17:41:28;99762.91;;;12.08;76.02
70314;BME280;71040;47.526;18.986;2024-03-22T17:46:28;99760.31;;;12.08;76.17
70314;BME280;71040;47.526;18.986;2024-03-22T17:51:29;99762.91;;;12.08;76.21
70314;BME280;71040;47.526;18.986;2024-03-22T17:56:30;99764.63;;;12.09;76.35
70314;BME280;71040;47.526;18.986;2024-03-22T18:01:32;99764.63;;;12.09;76.19
70314;BME280;71040;47.526;18.986;2024-03-22T18:06:34;99759.44;;;12.07;76.45
70314;BME280;71040;47.526;18.986;2024-03-22T18:11:37;99755.97;;;12.07;76.49
70314;BME280;71040;47.526;18.986;2024-03-22T18:16:38;99755.84;;;12.10;76.33
70314;BME280;71040;47.526;18.986;2024-03-22T18:21:38;99744.59;;;12.08;76.38
70314;BME280;71040;47.526;18.986;2024-03-22T18:26:43;99747.13;;;12.09;76.40
70314;BME280;71040;47.526;18.986;2024-03-22T18:31:44;99738.41;;;12.09;76.39
70314;BME280;71040;47.526;18.986;2024-03-22T18:36:47;99741.88;;;12.09;76.44
70314;BME280;71040;47.526;18.986;2024-03-22T18:41:50;99738.41;;;12.09;76.28
70314;BME280;71040;47.526;18.986;2024-03-22T18:46:50;99732.25;;;12.10;76.54
70314;BME280;71040;47.526;18.986;2024-03-22T18:51:53;99725.31;;;12.09;76.60
70314;BME280;71040;47.526;18.986;2024-03-22T18:56:53;99732.25;;;12.10;76.38
70314;BME280;71040;47.526;18.986;2024-03-22T19:01:54;99725.31;;;12.09;76.63
70314;BME280;71040;47.526;18.986;2024-03-22T19:06:54;99715.84;;;12.06;76.54
70314;BME280;71040;47.526;18.986;2024-03-22T19:11:57;99722.69;;;12.09;76.42
70314;BME280;71040;47.526;18.986;2024-03-22T19:17:00;99716.53;;;12.10;76.56
70314;BME280;71040;47.526;18.986;2024-03-22T19:22:00;99705.19;;;12.09;76.57
70314;BME280;71040;47.526;18.986;2024-03-22T19:27:01;99713.06;;;12.09;76.65
70314;BME280;71040;47.526;18.986;2024-03-22T19:32:03;99709.66;;;12.07;76.54
70314;BME280;71040;47.526;18.986;2024-03-22T19:37:04;99710.50;;;12.08;76.47
70314;BME280;71040;47.526;18.986;2024-03-22T19:42:11;99706.19;;;12.07;76.43
70314;BME280;71040;47.526;18.986;2024-03-22T19:47:16;99696.56;;;12.07;76.64
70314;BME280;71040;47.526;18.986;2024-03-22T19:52:17;99697.50;;;12.06;76.61
70314;BME280;71040;47.526;18.986;2024-03-22T19:57:17;99700.97;;;12.07;76.67
70314;BME280;71040;47.526;18.986;2024-03-22T20:02:20;99696.63;;;12.06;76.57
70314;BME280;71040;47.526;18.986;2024-03-22T20:07:23;99703.56;;;12.07;76.56
70314;BME280;71040;47.526;18.986;2024-03-22T20:12:26;99693.16;;;12.05;76.55
70314;BME280;71040;47.526;18.986;2024-03-22T20:17:26;99700.09;;;12.06;76.44
70314;BME280;71040;47.526;18.986;2024-03-22T20:22:29;99688.84;;;12.04;76.42
70314;BME280;71040;47.526;18.986;2024-03-22T20:27:35;99691.41;;;12.06;76.38
70314;BME280;71040;47.526;18.986;2024-03-22T20:32:36;99686.22;;;12.04;76.34
70314;BME280;71040;47.526;18.986;2024-03-22T20:37:37;99682.69;;;12.05;76.39
